createdAt,value
2018-02-15T00:00:52.554Z,11.03
2018-02-15T00:03:19.160Z,11.60
2018-02-15T00:05:45.771Z,11.67
2018-02-15T00:08:12.372Z,11.37
2018-02-15T00:10:38.972Z,11.33
2018-02-15T00:13:05.587Z,10.23
2018-02-15T00:15:32.214Z,12.03
2018-02-15T00:17:58.827Z,10.83
2018-02-15T00:20:25.439Z,10.53
2018-02-15T00:22:52.039Z,10.03
2018-02-15T00:25:18.632Z,9.83
2018-02-15T00:27:45.250Z,10.33
2018-02-15T00:30:11.848Z,11.03
2018-02-15T00:32:38.454Z,10.30
2018-02-15T00:35:05.064Z,10.63
2018-02-15T00:37:31.671Z,10.97
2018-02-15T00:39:58.267Z,10.00
2018-02-15T00:42:24.884Z,10.80
2018-02-15T00:44:51.492Z,10.30
2018-02-15T00:47:18.929Z,10.40
2018-02-15T00:49:45.543Z,10.93
2018-02-15T00:52:12.142Z,10.47
2018-02-15T00:54:38.825Z,10.63
2018-02-15T00:57:05.419Z,10.23
2018-02-15T00:59:32.020Z,10.53
2018-02-15T01:01:58.615Z,10.33
2018-02-15T01:04:25.235Z,10.40
2018-02-15T01:06:51.838Z,10.67
2018-02-15T01:09:18.482Z,10.47
2018-02-15T01:11:45.126Z,10.90
2018-02-15T01:14:11.724Z,10.40
2018-02-15T01:16:38.323Z,9.57
2018-02-15T01:19:04.928Z,9.60
2018-02-15T01:21:31.530Z,10.50
2018-02-15T01:23:58.123Z,9.90
2018-02-15T01:26:24.736Z,10.70
2018-02-15T01:28:51.352Z,9.67
2018-02-15T01:31:17.991Z,10.20
2018-02-15T01:33:44.600Z,10.10
2018-02-15T01:36:11.223Z,8.90
2018-02-15T01:38:37.816Z,9.73
2018-02-15T01:41:04.430Z,9.80
2018-02-15T01:43:31.024Z,10.10
2018-02-15T01:45:57.622Z,10.60
2018-02-15T01:48:24.314Z,10.10
2018-02-15T01:50:50.907Z,10.07
2018-02-15T01:53:17.507Z,10.00
2018-02-15T01:55:44.127Z,9.60
2018-02-15T01:58:10.725Z,10.93
2018-02-15T02:00:37.329Z,9.60
2018-02-15T02:03:03.935Z,10.80
2018-02-15T02:05:30.532Z,9.80
2018-02-15T02:07:57.127Z,10.63
2018-02-15T02:10:23.743Z,11.00
2018-02-15T02:12:50.340Z,10.67
2018-02-15T02:15:16.936Z,10.57
2018-02-15T02:17:43.553Z,10.97
2018-02-15T02:20:10.156Z,10.23
2018-02-15T02:22:36.756Z,10.60
2018-02-15T02:25:03.375Z,10.87
2018-02-15T02:27:29.975Z,10.80
2018-02-15T02:29:56.567Z,9.90
2018-02-15T02:32:23.183Z,11.50
2018-02-15T02:34:49.784Z,9.97
2018-02-15T02:37:16.384Z,11.20
2018-02-15T02:39:42.995Z,11.37
2018-02-15T02:42:09.603Z,11.30
2018-02-15T02:44:36.199Z,10.97
2018-02-15T02:47:02.822Z,11.20
2018-02-15T02:49:29.411Z,10.90
2018-02-15T02:51:56.015Z,10.77
2018-02-15T02:54:22.627Z,11.67
2018-02-15T02:56:49.222Z,11.17
2018-02-15T02:59:15.820Z,11.87
2018-02-15T03:01:42.435Z,11.27
2018-02-15T03:04:09.031Z,11.10
2018-02-15T03:06:35.634Z,11.00
2018-02-15T03:09:02.239Z,11.70
2018-02-15T03:11:28.840Z,10.50
2018-02-15T03:13:55.439Z,11.67
2018-02-15T03:16:22.059Z,11.90
2018-02-15T03:18:48.667Z,11.47
2018-02-15T03:21:15.270Z,11.50
2018-02-15T03:23:41.879Z,10.80
2018-02-15T03:26:08.479Z,11.00
2018-02-15T03:28:35.088Z,11.40
2018-02-15T03:31:01.698Z,10.90
2018-02-15T03:33:28.312Z,11.17
2018-02-15T03:35:54.920Z,10.80
2018-02-15T03:38:21.526Z,10.90
2018-02-15T03:40:48.129Z,10.77
2018-02-15T03:43:14.723Z,11.07
2018-02-15T03:45:41.345Z,11.03
2018-02-15T03:48:07.939Z,10.57
2018-02-15T03:50:34.540Z,10.90
2018-02-15T03:53:01.151Z,10.87
2018-02-15T03:55:27.755Z,10.43
2018-02-15T03:57:54.356Z,11.60
2018-02-15T04:00:20.975Z,12.30
2018-02-15T04:02:47.570Z,12.37
2018-02-15T04:05:14.167Z,10.80
2018-02-15T04:07:40.795Z,12.30
2018-02-15T04:10:07.391Z,12.23
2018-02-15T04:12:33.988Z,12.10
2018-02-15T04:15:00.600Z,12.83
2018-02-15T04:17:27.195Z,13.60
2018-02-15T04:19:53.791Z,13.90
2018-02-15T04:22:20.407Z,14.10
2018-02-15T04:24:47.012Z,15.27
2018-02-15T04:27:13.613Z,14.30
2018-02-15T04:29:40.219Z,15.07
2018-02-15T04:32:06.819Z,14.63
2018-02-15T04:34:33.424Z,14.57
2018-02-15T04:37:00.040Z,16.77
2018-02-15T04:39:26.646Z,13.77
2018-02-15T04:41:53.238Z,14.83
2018-02-15T04:44:19.859Z,15.97
2018-02-15T04:46:46.459Z,15.73
2018-02-15T04:49:13.055Z,15.20
2018-02-15T04:51:39.671Z,17.03
2018-02-15T04:54:06.281Z,15.87
2018-02-15T04:56:32.872Z,14.80
2018-02-15T04:58:59.487Z,15.00
2018-02-15T05:01:26.099Z,15.00
2018-02-15T05:03:52.691Z,16.47
2018-02-15T05:06:19.307Z,16.27
2018-02-15T05:08:45.908Z,15.50
2018-02-15T05:11:12.512Z,15.47
2018-02-15T05:13:39.124Z,15.70
2018-02-15T05:16:05.723Z,16.47
2018-02-15T05:18:32.369Z,16.60
2018-02-15T05:20:58.971Z,16.90
2018-02-15T05:23:25.572Z,16.80
2018-02-15T05:25:52.193Z,17.43
2018-02-15T05:28:18.795Z,16.77
2018-02-15T05:30:45.392Z,17.40
2018-02-15T05:33:11.991Z,16.50
2018-02-15T05:35:38.620Z,17.93
2018-02-15T05:38:05.219Z,18.13
2018-02-15T05:40:31.829Z,17.83
2018-02-15T05:42:58.448Z,16.40
2018-02-15T05:45:25.051Z,16.00
2018-02-15T05:47:51.648Z,17.83
2018-02-15T05:50:18.284Z,18.90
2018-02-15T05:52:44.907Z,17.63
2018-02-15T05:55:11.508Z,16.50
2018-02-15T05:57:38.178Z,17.30
2018-02-15T06:00:04.772Z,16.77
2018-02-15T06:02:31.359Z,16.03
2018-02-15T06:04:57.975Z,16.47
2018-02-15T06:07:24.576Z,15.37
2018-02-15T06:09:51.214Z,16.67
2018-02-15T06:12:17.861Z,17.60
2018-02-15T06:14:44.501Z,17.13
2018-02-15T06:17:11.120Z,15.60
2018-02-15T06:19:37.768Z,16.90
2018-02-15T06:22:04.397Z,17.37
2018-02-15T06:24:31.024Z,17.97
2018-02-15T06:26:57.656Z,18.20
2018-02-15T06:29:24.280Z,18.90
2018-02-15T06:31:50.912Z,17.80
2018-02-15T06:34:17.595Z,15.70
2018-02-15T06:36:44.218Z,17.00
2018-02-15T06:39:10.846Z,16.90
2018-02-15T06:41:37.484Z,17.07
2018-02-15T06:44:04.121Z,18.80
2018-02-15T06:46:30.744Z,17.00
2018-02-15T06:48:59.360Z,16.83
2018-02-15T06:51:25.985Z,17.57
2018-02-15T06:53:52.620Z,16.93
2018-02-15T06:56:19.257Z,15.70
2018-02-15T06:58:45.882Z,14.67
2018-02-15T07:01:12.518Z,14.80
2018-02-15T07:03:39.160Z,15.73
2018-02-15T07:06:05.785Z,15.27
2018-02-15T07:08:32.420Z,16.60
2018-02-15T07:10:59.087Z,15.20
2018-02-15T07:13:25.723Z,15.17
2018-02-15T07:15:52.344Z,15.97
2018-02-15T07:18:18.993Z,14.80
2018-02-15T07:20:45.613Z,16.10
2018-02-15T07:23:12.268Z,14.97
2018-02-15T07:25:38.922Z,16.00
2018-02-15T07:28:05.565Z,15.90
2018-02-15T07:30:32.200Z,14.80
2018-02-15T07:32:58.828Z,14.60
2018-02-15T07:35:25.457Z,15.50
2018-02-15T07:37:52.076Z,14.50
2018-02-15T07:40:18.741Z,15.07
2018-02-15T07:42:45.372Z,14.17
2018-02-15T07:45:12.014Z,13.60
2018-02-15T07:47:38.648Z,14.93
2018-02-15T07:50:05.297Z,14.33
2018-02-15T07:52:31.928Z,15.30
2018-02-15T07:54:58.571Z,14.57
2018-02-15T07:57:25.197Z,13.63
2018-02-15T07:59:51.827Z,14.87
2018-02-15T08:02:18.470Z,14.23
2018-02-15T08:04:45.101Z,12.87
2018-02-15T08:07:11.720Z,12.00
2018-02-15T08:09:38.384Z,14.00
2018-02-15T08:12:05.008Z,12.80
2018-02-15T08:14:31.637Z,12.57
2018-02-15T08:16:58.288Z,13.17
2018-02-15T08:19:24.912Z,12.30
2018-02-15T08:21:51.536Z,12.90
2018-02-15T08:24:18.525Z,13.27
2018-02-15T08:26:45.148Z,12.20
2018-02-15T08:29:11.772Z,13.37
2018-02-15T08:31:38.409Z,12.97
2018-02-15T08:34:05.038Z,12.30
2018-02-15T08:36:31.660Z,10.27
2018-02-15T08:38:58.302Z,12.50
2018-02-15T08:41:24.936Z,13.07
2018-02-15T08:43:51.569Z,11.00
2018-02-15T08:46:18.217Z,11.37
2018-02-15T08:48:44.841Z,12.30
2018-02-15T08:51:11.465Z,10.47
2018-02-15T08:53:38.107Z,13.43
2018-02-15T08:56:04.732Z,11.90
2018-02-15T08:58:31.356Z,10.63
2018-02-15T09:00:57.996Z,13.60
2018-02-15T09:03:24.621Z,11.93
2018-02-15T09:05:51.244Z,13.00
2018-02-15T09:08:17.895Z,13.67
2018-02-15T09:10:44.529Z,12.97
2018-02-15T09:13:11.159Z,13.83
2018-02-15T09:15:37.806Z,13.30
2018-02-15T09:18:06.389Z,12.90
2018-02-15T09:20:33.017Z,13.67
2018-02-15T09:22:59.653Z,13.93
2018-02-15T09:25:26.278Z,13.70
2018-02-15T09:27:52.905Z,13.57
2018-02-15T09:30:19.556Z,14.00
2018-02-15T09:32:46.181Z,14.33
2018-02-15T09:35:12.822Z,13.60
2018-02-15T09:37:39.456Z,13.80
2018-02-15T09:40:06.085Z,13.97
2018-02-15T09:42:32.714Z,15.47
2018-02-15T09:44:59.692Z,14.10
2018-02-15T09:47:26.327Z,14.10
2018-02-15T09:49:52.956Z,15.80
2018-02-15T09:52:19.600Z,13.90
2018-02-15T09:54:46.228Z,15.20
2018-02-15T09:57:12.863Z,15.57
2018-02-15T09:59:39.501Z,14.70
2018-02-15T10:02:06.132Z,14.53
2018-02-15T10:04:32.754Z,15.20
2018-02-15T10:06:59.393Z,14.27
2018-02-15T10:09:26.012Z,15.90
2018-02-15T10:11:52.636Z,16.07
2018-02-15T10:14:19.281Z,14.67
2018-02-15T10:16:45.910Z,14.00
2018-02-15T10:19:12.534Z,14.60
2018-02-15T10:21:39.176Z,14.90
2018-02-15T10:24:05.796Z,15.00
2018-02-15T10:26:32.425Z,17.10
2018-02-15T10:28:59.062Z,15.10
2018-02-15T10:31:25.700Z,15.17
2018-02-15T10:33:52.343Z,15.70
2018-02-15T10:36:18.994Z,14.40
2018-02-15T10:38:45.616Z,13.30
2018-02-15T10:41:12.249Z,14.50
2018-02-15T10:43:38.888Z,15.30
2018-02-15T10:46:05.512Z,14.50
2018-02-15T10:48:32.140Z,15.90
2018-02-15T10:50:58.784Z,16.47
2018-02-15T10:53:25.409Z,13.83
2018-02-15T10:55:52.052Z,13.53
2018-02-15T10:58:18.693Z,14.63
2018-02-15T11:00:51.133Z,17.60
2018-02-15T11:03:23.417Z,15.40
2018-02-15T11:05:50.041Z,15.10
2018-02-15T11:08:16.668Z,15.47
2018-02-15T11:10:43.304Z,14.43
2018-02-15T11:13:09.937Z,13.93
2018-02-15T11:15:36.565Z,14.27
2018-02-15T11:18:03.208Z,15.40
2018-02-15T11:20:29.846Z,13.13
2018-02-15T11:22:56.493Z,12.90
2018-02-15T11:25:23.133Z,13.07
2018-02-15T11:27:49.757Z,14.00
2018-02-15T11:30:16.386Z,14.33
2018-02-15T11:32:43.030Z,13.67
2018-02-15T11:35:09.657Z,13.57
2018-02-15T11:37:36.282Z,12.43
2018-02-15T11:40:02.928Z,12.63
2018-02-15T11:42:29.557Z,15.10
2018-02-15T11:44:56.188Z,14.50
2018-02-15T11:47:22.824Z,13.57
2018-02-15T11:49:49.451Z,13.87
2018-02-15T11:52:16.077Z,14.47
2018-02-15T11:54:42.713Z,14.90
2018-02-15T11:57:09.351Z,13.20
2018-02-15T11:59:35.977Z,13.80
2018-02-15T12:02:02.616Z,12.90
2018-02-15T12:04:29.244Z,11.80
2018-02-15T12:06:55.873Z,13.03
2018-02-15T12:09:22.519Z,13.00
2018-02-15T12:11:49.198Z,13.03
2018-02-15T12:14:15.877Z,13.20
2018-02-15T12:16:42.516Z,13.40
2018-02-15T12:19:09.140Z,13.27
2018-02-15T12:21:35.773Z,11.90
2018-02-15T12:24:02.420Z,12.53
2018-02-15T12:26:29.044Z,13.20
2018-02-15T12:28:55.671Z,12.50
2018-02-15T12:31:22.320Z,11.37
2018-02-15T12:33:48.957Z,11.27
2018-02-15T12:36:15.585Z,12.27
2018-02-15T12:38:42.220Z,11.33
2018-02-15T12:41:08.847Z,12.93
2018-02-15T12:43:35.481Z,11.83
2018-02-15T12:46:02.116Z,12.73
2018-02-15T12:48:28.746Z,11.13
2018-02-15T12:50:55.376Z,11.70
2018-02-15T12:53:22.013Z,12.43
2018-02-15T12:55:48.645Z,12.70
2018-02-15T12:58:15.269Z,12.17
2018-02-15T13:00:41.915Z,12.40
2018-02-15T13:03:08.544Z,12.43
2018-02-15T13:05:35.170Z,11.70
2018-02-15T13:08:01.856Z,11.83
2018-02-15T13:10:28.462Z,11.80
2018-02-15T13:13:00.961Z,12.00
2018-02-15T13:15:33.355Z,11.40
2018-02-15T13:17:59.984Z,12.27
2018-02-15T13:20:26.638Z,12.40
2018-02-15T13:22:53.263Z,11.53
2018-02-15T13:25:19.896Z,11.93
2018-02-15T13:27:52.580Z,11.30
2018-02-15T13:30:19.205Z,12.07
2018-02-15T13:32:45.832Z,11.20
2018-02-15T13:35:12.513Z,11.27
2018-02-15T13:37:39.124Z,11.40
2018-02-15T13:40:06.680Z,11.33
2018-02-15T13:42:33.312Z,11.50
2018-02-15T13:44:59.962Z,11.80
2018-02-15T13:47:26.581Z,13.80
2018-02-15T13:49:53.225Z,12.07
2018-02-15T13:52:19.851Z,12.50
2018-02-15T13:54:46.477Z,13.20
2018-02-15T13:57:13.178Z,13.47
2018-02-15T13:59:39.802Z,12.10
2018-02-15T14:02:06.504Z,12.40
2018-02-15T14:04:33.154Z,12.47
2018-02-15T14:06:59.777Z,12.33
2018-02-15T14:09:26.422Z,11.10
2018-02-15T14:11:53.069Z,12.07
2018-02-15T14:14:19.701Z,11.80
2018-02-15T14:16:46.324Z,11.60
2018-02-15T14:19:12.969Z,11.87
2018-02-15T14:21:39.613Z,12.77
2018-02-15T14:24:06.245Z,11.60
2018-02-15T14:26:32.881Z,11.73
2018-02-15T14:28:59.509Z,12.37
2018-02-15T14:31:26.137Z,11.73
2018-02-15T14:33:52.785Z,12.80
2018-02-15T14:36:19.414Z,14.40
2018-02-15T14:38:46.037Z,17.70
2018-02-15T14:41:12.693Z,12.30
2018-02-15T14:43:39.317Z,12.53
2018-02-15T14:46:05.944Z,12.10
2018-02-15T14:48:32.585Z,12.10
2018-02-15T14:50:59.213Z,12.50
2018-02-15T14:53:25.837Z,13.10
2018-02-15T14:55:52.490Z,11.97
2018-02-15T14:58:19.173Z,13.77
2018-02-15T15:00:45.805Z,12.47
2018-02-15T15:03:12.445Z,13.13
2018-02-15T15:05:39.077Z,13.87
2018-02-15T15:08:05.705Z,13.23
2018-02-15T15:10:32.344Z,12.57
2018-02-15T15:12:58.965Z,12.27
2018-02-15T15:15:25.589Z,14.00
2018-02-15T15:17:52.224Z,15.60
2018-02-15T15:20:18.852Z,15.13
2018-02-15T15:22:45.493Z,14.33
2018-02-15T15:25:12.134Z,12.60
2018-02-15T15:27:38.760Z,15.17
2018-02-15T15:30:05.393Z,14.33
2018-02-15T15:32:32.024Z,14.77
2018-02-15T15:34:58.649Z,12.83
2018-02-15T15:37:25.283Z,12.50
2018-02-15T15:39:51.937Z,12.10
2018-02-15T15:42:18.560Z,13.63
2018-02-15T15:44:45.187Z,13.40
2018-02-15T15:47:11.825Z,16.93
2018-02-15T15:49:38.452Z,15.57
2018-02-15T15:52:05.077Z,13.53
2018-02-15T15:54:31.721Z,12.13
2018-02-15T15:56:58.346Z,13.37
2018-02-15T15:59:24.969Z,10.97
2018-02-15T16:01:51.612Z,10.33
2018-02-15T16:04:18.241Z,9.50
2018-02-15T16:06:44.862Z,9.93
2018-02-15T16:09:11.502Z,10.17
2018-02-15T16:11:38.127Z,10.13
2018-02-15T16:14:04.777Z,11.10
2018-02-15T16:16:31.416Z,10.13
2018-02-15T16:18:58.045Z,11.07
2018-02-15T16:21:24.662Z,9.80
2018-02-15T16:23:51.417Z,10.23
2018-02-15T16:26:18.045Z,9.80
2018-02-15T16:28:44.668Z,10.00
2018-02-15T16:31:11.304Z,10.00
2018-02-15T16:33:37.961Z,10.03
2018-02-15T16:36:04.564Z,9.87
2018-02-15T16:38:31.209Z,9.33
2018-02-15T16:40:57.829Z,9.70
2018-02-15T16:43:24.453Z,10.87
2018-02-15T16:45:51.098Z,9.90
2018-02-15T16:48:17.737Z,10.80
2018-02-15T16:50:44.397Z,10.33
2018-02-15T16:53:11.036Z,9.20
2018-02-15T16:55:37.671Z,10.03
2018-02-15T16:58:04.285Z,9.23
2018-02-15T17:00:30.917Z,9.83
2018-02-15T17:02:57.541Z,9.07
2018-02-15T17:05:24.156Z,9.70
2018-02-15T17:07:50.805Z,9.83
2018-02-15T17:10:17.432Z,9.30
2018-02-15T17:12:44.069Z,8.93
2018-02-15T17:15:10.700Z,8.77
2018-02-15T17:17:37.317Z,9.43
2018-02-15T17:20:03.941Z,9.40
2018-02-15T17:22:30.617Z,9.33
2018-02-15T17:24:57.244Z,10.33
2018-02-15T17:27:23.861Z,9.90
2018-02-15T17:29:50.518Z,9.07
2018-02-15T17:32:17.151Z,10.50
2018-02-15T17:34:43.772Z,10.50
2018-02-15T17:37:10.408Z,11.97
2018-02-15T17:39:37.035Z,10.40
2018-02-15T17:42:03.676Z,10.40
2018-02-15T17:44:30.321Z,10.93
2018-02-15T17:46:56.946Z,12.07
2018-02-15T17:49:23.572Z,11.87
2018-02-15T17:51:50.218Z,11.17
2018-02-15T17:54:16.860Z,11.83
2018-02-15T17:56:43.491Z,10.50
2018-02-15T17:59:10.148Z,10.07
2018-02-15T18:01:36.777Z,11.03
2018-02-15T18:04:03.453Z,11.47
2018-02-15T18:06:30.108Z,9.87
2018-02-15T18:08:56.732Z,10.07
2018-02-15T18:11:23.361Z,9.40
2018-02-15T18:13:50.010Z,9.87
2018-02-15T18:16:16.632Z,9.80
2018-02-15T18:18:43.270Z,10.80
2018-02-15T18:21:09.908Z,10.90
2018-02-15T18:23:36.549Z,11.67
2018-02-15T18:26:03.177Z,11.00
2018-02-15T18:28:29.821Z,12.07
2018-02-15T18:30:56.445Z,17.20
2018-02-15T18:33:23.073Z,16.50
2018-02-15T18:35:49.728Z,13.37
2018-02-15T18:38:16.352Z,12.50
2018-02-15T18:40:42.976Z,11.20
2018-02-15T18:43:09.616Z,11.60
2018-02-15T18:45:36.253Z,10.53
2018-02-15T18:48:02.918Z,11.00
2018-02-15T18:50:29.521Z,11.40
2018-02-15T18:52:56.137Z,8.00
2018-02-15T18:55:22.765Z,8.37
2018-02-15T18:57:49.544Z,8.23
2018-02-15T19:00:16.186Z,8.07
2018-02-15T19:02:42.804Z,8.73
2018-02-15T19:05:09.445Z,9.60
2018-02-15T19:07:36.086Z,9.10
2018-02-15T19:10:02.713Z,9.60
2018-02-15T19:12:29.352Z,9.80
2018-02-15T19:14:55.976Z,10.20
2018-02-15T19:17:22.613Z,13.00
2018-02-15T19:19:49.337Z,11.97
2018-02-15T19:22:15.964Z,11.33
2018-02-15T19:24:42.594Z,9.80
2018-02-15T19:27:10.201Z,9.67
2018-02-15T19:29:36.823Z,9.80
2018-02-15T19:32:03.449Z,9.67
2018-02-15T19:34:30.084Z,9.90
2018-02-15T19:36:56.709Z,11.17
2018-02-15T19:39:23.341Z,10.83
2018-02-15T19:41:50.001Z,11.60
2018-02-15T19:44:16.640Z,12.50
2018-02-15T19:46:43.265Z,11.57
2018-02-15T19:49:09.906Z,11.40
2018-02-15T19:51:36.537Z,10.13
2018-02-15T19:54:03.177Z,10.67
2018-02-15T19:56:29.837Z,10.73
2018-02-15T19:58:56.456Z,10.50
2018-02-15T20:01:23.081Z,9.33
2018-02-15T20:03:49.724Z,9.10
2018-02-15T20:06:16.345Z,9.23
2018-02-15T20:08:42.973Z,9.63
2018-02-15T20:11:09.607Z,9.23
2018-02-15T20:13:36.225Z,9.33
2018-02-15T20:16:02.868Z,8.17
2018-02-15T20:18:29.505Z,8.20
2018-02-15T20:20:56.124Z,8.83
2018-02-15T20:23:22.741Z,9.33
2018-02-15T20:26:07.072Z,10.90
2018-02-15T20:28:33.705Z,10.20
2018-02-15T20:31:00.328Z,12.20
2018-02-15T20:33:26.973Z,12.60
2018-02-15T20:35:53.597Z,10.67
2018-02-15T20:38:25.800Z,9.20
2018-02-15T20:40:52.441Z,9.53
2018-02-15T20:43:19.958Z,8.33
2018-02-15T20:45:46.584Z,8.40
2018-02-15T20:48:13.220Z,8.50
2018-02-15T20:50:45.576Z,8.80
2018-02-15T20:53:18.030Z,8.43
2018-02-15T20:55:44.652Z,9.17
2018-02-15T20:58:11.269Z,7.90
2018-02-15T21:00:37.977Z,9.07
2018-02-15T21:03:04.552Z,8.00
2018-02-15T21:05:31.173Z,8.50
2018-02-15T21:07:57.824Z,9.03
2018-02-15T21:10:24.457Z,7.87
2018-02-15T21:12:51.076Z,8.10
2018-02-15T21:15:17.717Z,7.63
2018-02-15T21:17:44.338Z,7.60
2018-02-15T21:20:11.149Z,7.57
2018-02-15T21:22:37.780Z,8.20
2018-02-15T21:25:04.424Z,7.50
2018-02-15T21:27:31.045Z,8.20
2018-02-15T21:29:57.701Z,7.90
2018-02-15T21:32:24.326Z,8.47
2018-02-15T21:34:50.979Z,8.20
2018-02-15T21:37:17.588Z,7.30
2018-02-15T21:39:44.209Z,7.83
2018-02-15T21:42:10.833Z,7.03
2018-02-15T21:44:37.468Z,7.57
2018-02-15T21:47:04.101Z,7.10
2018-02-15T21:49:30.729Z,7.67
2018-02-15T21:51:57.373Z,7.40
2018-02-15T21:54:23.988Z,7.93
2018-02-15T21:56:50.603Z,8.30
2018-02-15T21:59:17.250Z,8.10
2018-02-15T22:01:43.883Z,8.50
2018-02-15T22:04:10.505Z,8.27
2018-02-15T22:06:37.176Z,7.83
2018-02-15T22:09:03.802Z,9.67
2018-02-15T22:11:30.424Z,9.50
2018-02-15T22:13:57.062Z,9.37
2018-02-15T22:16:23.689Z,10.97
2018-02-15T22:18:50.316Z,9.70
2018-02-15T22:21:16.915Z,10.07
2018-02-15T22:23:43.521Z,11.00
2018-02-15T22:26:10.124Z,10.30
2018-02-15T22:28:36.728Z,10.70
2018-02-15T22:31:03.328Z,11.20
2018-02-15T22:33:29.926Z,11.37
2018-02-15T22:35:56.553Z,12.53
2018-02-15T22:38:23.151Z,12.20
2018-02-15T22:40:49.748Z,12.43
2018-02-15T22:43:16.368Z,12.20
2018-02-15T22:45:42.977Z,13.23
2018-02-15T22:48:09.583Z,12.07
2018-02-15T22:50:36.191Z,11.07
2018-02-15T22:53:02.791Z,11.47
2018-02-15T22:55:29.401Z,11.27
2018-02-15T22:57:56.012Z,10.70
2018-02-15T23:00:22.607Z,9.90
2018-02-15T23:02:49.208Z,10.83
2018-02-15T23:05:15.816Z,9.30
2018-02-15T23:07:42.416Z,8.83
2018-02-15T23:10:09.003Z,8.27
2018-02-15T23:12:35.612Z,9.10
2018-02-15T23:15:02.214Z,8.93
2018-02-15T23:17:28.804Z,8.40
2018-02-15T23:19:55.420Z,8.90
2018-02-15T23:22:22.016Z,8.20
2018-02-15T23:24:48.612Z,8.13
2018-02-15T23:27:15.223Z,8.13
2018-02-15T23:29:43.775Z,8.33
2018-02-15T23:32:10.373Z,8.37
2018-02-15T23:34:36.995Z,9.37
2018-02-15T23:37:03.596Z,9.10
2018-02-15T23:39:30.188Z,9.50
2018-02-15T23:41:56.799Z,9.20
2018-02-15T23:44:23.407Z,8.87
2018-02-15T23:46:49.993Z,9.33
2018-02-15T23:49:16.603Z,9.50
2018-02-15T23:51:43.210Z,9.60
2018-02-15T23:54:09.805Z,9.17
2018-02-15T23:56:36.439Z,8.90
2018-02-15T23:59:03.041Z,8.37
